createdAt,value
2023-04-21T00:00:25.335Z,75.30
2023-04-21T00:02:51.851Z,75.30
2023-04-21T00:05:18.774Z,75.70
2023-04-21T00:07:45.325Z,75.80
2023-04-21T00:10:11.702Z,76.00
2023-04-21T00:12:38.147Z,75.80
2023-04-21T00:15:04.618Z,76.10
2023-04-21T00:17:31.059Z,76.50
2023-04-21T00:19:57.642Z,76.90
2023-04-21T00:22:24.061Z,77.20
2023-04-21T00:24:50.519Z,77.40
2023-04-21T00:27:16.917Z,77.50
2023-04-21T00:29:43.359Z,77.40
2023-04-21T00:32:09.773Z,77.40
2023-04-21T00:34:36.180Z,77.20
2023-04-21T00:37:02.552Z,77.20
2023-04-21T00:39:28.926Z,77.50
2023-04-21T00:41:55.328Z,77.50
2023-04-21T00:44:21.792Z,77.30
2023-04-21T00:46:48.262Z,77.40
2023-04-21T00:49:14.683Z,77.30
2023-04-21T00:51:41.103Z,77.50
2023-04-21T00:54:07.510Z,77.70
2023-04-21T00:56:33.943Z,77.80
2023-04-21T00:59:00.531Z,77.90
2023-04-21T01:01:27.096Z,78.10
2023-04-21T01:03:53.664Z,78.20
2023-04-21T01:06:20.242Z,78.10
2023-04-21T01:08:46.652Z,78.20
2023-04-21T01:11:13.029Z,78.50
2023-04-21T01:13:39.446Z,78.60
2023-04-21T01:16:05.856Z,78.50
2023-04-21T01:18:32.330Z,78.50
2023-04-21T01:20:58.793Z,78.30
2023-04-21T01:23:25.249Z,78.30
2023-04-21T01:25:51.729Z,78.10
2023-04-21T01:28:18.125Z,78.00
2023-04-21T01:30:44.575Z,78.00
2023-04-21T01:33:11.058Z,78.00
2023-04-21T01:35:37.550Z,78.00
2023-04-21T01:38:03.974Z,78.10
2023-04-21T01:40:30.355Z,78.20
2023-04-21T01:42:56.725Z,78.20
2023-04-21T01:45:23.096Z,78.20
2023-04-21T01:47:49.589Z,78.30
2023-04-21T01:50:16.015Z,78.30
2023-04-21T01:52:42.465Z,79.00
2023-04-21T01:55:08.837Z,78.40
2023-04-21T01:57:35.229Z,78.60
2023-04-21T02:00:01.647Z,78.50
2023-04-21T02:02:28.210Z,78.60
2023-04-21T02:04:54.732Z,78.80
2023-04-21T02:07:21.216Z,78.70
2023-04-21T02:09:47.621Z,78.70
2023-04-21T02:12:14.013Z,78.80
2023-04-21T02:14:40.508Z,78.90
2023-04-21T02:17:06.957Z,79.20
2023-04-21T02:19:33.353Z,79.40
2023-04-21T02:21:59.790Z,79.40
2023-04-21T02:24:26.207Z,79.30
2023-04-21T02:26:52.629Z,79.50
2023-04-21T02:29:19.336Z,79.50
2023-04-21T02:31:57.829Z,79.50
2023-04-21T02:34:29.667Z,79.50
2023-04-21T02:36:56.028Z,79.90
2023-04-21T02:39:22.393Z,80.10
2023-04-21T02:41:48.774Z,80.30
2023-04-21T02:44:15.160Z,80.40
2023-04-21T02:46:41.705Z,80.40
2023-04-21T02:49:08.297Z,80.40
2023-04-21T02:51:34.751Z,80.40
2023-04-21T02:54:01.196Z,80.50
2023-04-21T02:56:27.623Z,80.50
2023-04-21T02:58:54.034Z,80.40
2023-04-21T03:01:20.522Z,80.40
2023-04-21T03:03:47.152Z,80.50
2023-04-21T03:06:13.688Z,80.40
2023-04-21T03:08:40.125Z,80.40
2023-04-21T03:11:06.548Z,80.40
2023-04-21T03:13:33.002Z,80.50
2023-04-21T03:15:59.413Z,80.60
2023-04-21T03:18:25.836Z,80.60
2023-04-21T03:20:52.284Z,80.50
2023-04-21T03:23:18.720Z,80.50
2023-04-21T03:25:45.116Z,80.30
2023-04-21T03:28:11.564Z,80.10
2023-04-21T03:30:37.966Z,80.10
2023-04-21T03:33:04.394Z,79.90
2023-04-21T03:35:30.874Z,79.80
2023-04-21T03:37:57.323Z,79.60
2023-04-21T03:40:23.762Z,79.60
2023-04-21T03:42:50.192Z,79.50
2023-04-21T03:45:16.654Z,79.40
2023-04-21T03:47:43.064Z,79.50
2023-04-21T03:50:09.527Z,79.40
2023-04-21T03:52:36.014Z,79.60
2023-04-21T03:55:02.435Z,79.40
2023-04-21T03:57:28.893Z,79.50
2023-04-21T03:59:55.318Z,79.50
2023-04-21T04:02:21.881Z,79.50
2023-04-21T04:04:48.566Z,79.50
2023-04-21T04:07:15.009Z,79.50
2023-04-21T04:09:41.397Z,79.60
2023-04-21T04:12:08.699Z,79.60
2023-04-21T04:14:35.851Z,79.60
2023-04-21T04:17:02.235Z,79.70
2023-04-21T04:19:28.650Z,79.80
2023-04-21T04:21:55.058Z,79.90
2023-04-21T04:24:21.443Z,80.00
2023-04-21T04:26:47.856Z,80.00
2023-04-21T04:29:14.333Z,80.00
2023-04-21T04:31:40.805Z,80.00
2023-04-21T04:34:07.293Z,80.00
2023-04-21T04:36:33.686Z,80.10
2023-04-21T04:39:00.078Z,80.00
2023-04-21T04:41:26.550Z,80.00
2023-04-21T04:43:52.967Z,80.00
2023-04-21T04:46:19.476Z,80.00
2023-04-21T04:48:45.888Z,80.10
2023-04-21T04:51:12.293Z,80.20
2023-04-21T04:53:38.706Z,80.20
2023-04-21T04:56:05.149Z,80.20
2023-04-21T04:58:31.604Z,80.30
2023-04-21T05:00:57.987Z,80.30
2023-04-21T05:03:24.443Z,80.30
2023-04-21T05:05:50.899Z,80.40
2023-04-21T05:08:18.151Z,80.40
2023-04-21T05:10:44.710Z,80.40
2023-04-21T05:13:11.094Z,80.40
2023-04-21T05:15:37.556Z,80.40
2023-04-21T05:18:04.043Z,80.30
2023-04-21T05:20:30.498Z,80.20
2023-04-21T05:22:56.961Z,80.30
2023-04-21T05:25:23.416Z,80.40
2023-04-21T05:27:49.853Z,80.40
2023-04-21T05:30:16.250Z,80.50
2023-04-21T05:32:42.762Z,80.30
2023-04-21T05:35:09.262Z,80.40
2023-04-21T05:37:35.643Z,80.40
2023-04-21T05:40:02.017Z,80.50
2023-04-21T05:42:28.481Z,80.40
2023-04-21T05:44:54.914Z,80.40
2023-04-21T05:47:21.321Z,80.50
2023-04-21T05:49:47.732Z,80.50
2023-04-21T05:52:14.120Z,80.50
2023-04-21T05:54:40.515Z,80.50
2023-04-21T05:57:06.993Z,80.60
2023-04-21T05:59:33.369Z,80.60
2023-04-21T06:01:59.888Z,80.50
2023-04-21T06:04:27.009Z,80.60
2023-04-21T06:06:53.723Z,80.50
2023-04-21T06:09:20.171Z,80.60
2023-04-21T06:11:46.601Z,80.60
2023-04-21T06:14:12.988Z,80.60
2023-04-21T06:16:39.518Z,80.60
2023-04-21T06:19:06.122Z,80.70
2023-04-21T06:21:32.543Z,80.60
2023-04-21T06:23:58.967Z,80.70
2023-04-21T06:26:25.401Z,80.70
2023-04-21T06:28:51.822Z,81.00
2023-04-21T06:31:18.222Z,81.10
2023-04-21T06:33:44.629Z,81.20
2023-04-21T06:36:11.048Z,81.20
2023-04-21T06:38:37.429Z,81.10
2023-04-21T06:41:03.829Z,81.10
2023-04-21T06:43:30.286Z,81.30
2023-04-21T06:45:56.706Z,81.40
2023-04-21T06:48:23.090Z,81.50
2023-04-21T06:50:49.523Z,81.60
2023-04-21T06:53:15.979Z,81.70
2023-04-21T06:55:42.419Z,81.70
2023-04-21T06:58:08.815Z,81.60
2023-04-21T07:00:35.176Z,81.50
2023-04-21T07:03:01.688Z,81.50
2023-04-21T07:05:28.220Z,81.50
2023-04-21T07:07:54.658Z,81.50
2023-04-21T07:10:21.166Z,81.50
2023-04-21T07:12:47.610Z,81.50
2023-04-21T07:15:13.972Z,81.50
2023-04-21T07:17:40.392Z,82.20
2023-04-21T07:20:06.817Z,82.30
2023-04-21T07:22:33.249Z,81.60
2023-04-21T07:24:59.647Z,81.60
2023-04-21T07:27:26.094Z,81.50
2023-04-21T07:29:52.555Z,81.40
2023-04-21T07:32:18.960Z,81.40
2023-04-21T07:34:45.400Z,81.30
2023-04-21T07:37:11.800Z,81.30
2023-04-21T07:39:38.197Z,81.40
2023-04-21T07:42:04.595Z,81.40
2023-04-21T07:44:31.016Z,81.40
2023-04-21T07:46:57.474Z,81.30
2023-04-21T07:49:24.069Z,81.40
2023-04-21T07:51:50.523Z,81.30
2023-04-21T07:54:16.971Z,81.20
2023-04-21T07:56:43.483Z,81.10
2023-04-21T07:59:09.918Z,81.00
2023-04-21T08:01:36.345Z,81.00
2023-04-21T08:04:03.077Z,80.90
2023-04-21T08:06:29.950Z,80.90
2023-04-21T08:08:56.390Z,80.90
2023-04-21T08:11:22.790Z,80.90
2023-04-21T08:13:49.214Z,80.90
2023-04-21T08:16:15.655Z,81.00
2023-04-21T08:18:42.168Z,81.00
2023-04-21T08:21:08.609Z,80.90
2023-04-21T08:23:35.041Z,80.70
2023-04-21T08:26:01.500Z,80.50
2023-04-21T08:28:28.006Z,80.20
2023-04-21T08:30:54.442Z,80.10
2023-04-21T08:33:20.884Z,80.00
2023-04-21T08:35:59.225Z,79.60
2023-04-21T08:38:29.224Z,79.50
2023-04-21T08:40:55.657Z,79.40
2023-04-21T08:43:22.046Z,79.30
2023-04-21T08:45:48.547Z,79.30
2023-04-21T08:48:15.072Z,79.30
2023-04-21T08:50:41.569Z,79.30
2023-04-21T08:53:07.978Z,79.30
2023-04-21T08:55:34.554Z,79.30
2023-04-21T08:58:00.944Z,79.20
2023-04-21T09:00:27.357Z,79.10
2023-04-21T09:03:00.177Z,79.10
2023-04-21T09:05:28.352Z,79.00
2023-04-21T09:07:54.905Z,78.90
2023-04-21T09:10:21.302Z,78.70
2023-04-21T09:12:47.756Z,78.70
2023-04-21T09:15:14.170Z,78.80
2023-04-21T09:17:40.658Z,78.70
2023-04-21T09:20:07.126Z,78.60
2023-04-21T09:22:33.515Z,78.50
2023-04-21T09:25:00.050Z,78.30
2023-04-21T09:27:26.624Z,78.30
2023-04-21T09:29:53.006Z,78.30
2023-04-21T09:32:19.416Z,78.20
2023-04-21T09:34:45.853Z,78.00
2023-04-21T09:37:12.221Z,77.80
2023-04-21T09:39:52.748Z,77.70
2023-04-21T09:42:25.102Z,77.30
2023-04-21T09:44:56.428Z,77.80
2023-04-21T09:47:25.957Z,77.30
2023-04-21T09:49:52.354Z,77.20
2023-04-21T09:52:19.653Z,77.10
2023-04-21T09:54:46.252Z,76.90
2023-04-21T09:57:12.691Z,76.80
2023-04-21T09:59:39.124Z,76.50
2023-04-21T10:02:05.708Z,76.40
2023-04-21T10:04:32.674Z,76.20
2023-04-21T10:06:59.462Z,76.00
2023-04-21T10:09:25.882Z,75.90
2023-04-21T10:11:52.302Z,75.70
2023-04-21T10:14:18.955Z,75.30
2023-04-21T10:16:45.858Z,75.20
2023-04-21T10:19:12.426Z,75.00
2023-04-21T10:21:38.841Z,75.00
2023-04-21T10:24:05.227Z,74.70
2023-04-21T10:26:31.604Z,74.60
2023-04-21T10:28:58.030Z,74.50
2023-04-21T10:31:24.452Z,74.40
2023-04-21T10:33:50.886Z,74.20
2023-04-21T10:36:17.261Z,74.20
2023-04-21T10:38:43.663Z,74.00
2023-04-21T10:41:10.074Z,74.00
2023-04-21T10:43:36.560Z,73.90
2023-04-21T10:46:03.209Z,73.80
2023-04-21T10:48:29.627Z,73.60
2023-04-21T10:50:56.073Z,73.00
2023-04-21T10:53:22.457Z,72.50
2023-04-21T10:55:48.905Z,72.30
2023-04-21T10:58:15.303Z,71.80
2023-04-21T11:00:41.756Z,71.90
2023-04-21T11:03:08.440Z,71.90
2023-04-21T11:05:35.063Z,71.80
2023-04-21T11:08:01.504Z,71.60
2023-04-21T11:10:27.967Z,71.40
2023-04-21T11:12:54.345Z,71.50
2023-04-21T11:15:20.786Z,71.20
2023-04-21T11:17:47.271Z,71.30
2023-04-21T11:20:13.932Z,71.60
2023-04-21T11:22:40.454Z,72.10
2023-04-21T11:25:06.901Z,72.30
2023-04-21T11:27:33.469Z,72.30
2023-04-21T11:29:59.854Z,72.60
2023-04-21T11:32:26.265Z,72.90
2023-04-21T11:34:52.709Z,73.20
2023-04-21T11:37:19.194Z,73.70
2023-04-21T11:39:45.632Z,73.60
2023-04-21T11:42:12.054Z,73.70
2023-04-21T11:44:38.493Z,73.80
2023-04-21T11:47:04.926Z,73.80
2023-04-21T11:49:31.386Z,73.80
2023-04-21T11:51:57.805Z,74.00
2023-04-21T11:54:24.238Z,74.20
2023-04-21T11:56:50.673Z,74.10
2023-04-21T11:59:17.142Z,74.10
2023-04-21T12:01:43.580Z,74.10
2023-04-21T12:04:10.058Z,74.00
2023-04-21T12:06:36.557Z,74.00
2023-04-21T12:09:03.317Z,74.00
2023-04-21T12:11:29.728Z,73.90
2023-04-21T12:13:56.149Z,73.80
2023-04-21T12:16:22.592Z,73.90
2023-04-21T12:18:49.004Z,73.80
2023-04-21T12:21:15.393Z,73.30
2023-04-21T12:23:41.770Z,72.50
2023-04-21T12:26:08.204Z,71.80
2023-04-21T12:28:34.593Z,71.20
2023-04-21T12:31:00.957Z,70.40
2023-04-21T12:33:27.488Z,69.20
2023-04-21T12:35:54.012Z,68.20
2023-04-21T12:38:20.402Z,67.40
2023-04-21T12:40:46.764Z,67.10
2023-04-21T12:43:13.151Z,66.40
2023-04-21T12:45:39.619Z,66.50
2023-04-21T12:48:06.152Z,66.00
2023-04-21T12:50:32.640Z,65.90
2023-04-21T12:52:59.091Z,65.20
2023-04-21T12:55:25.493Z,65.10
2023-04-21T12:57:51.879Z,65.30
2023-04-21T13:00:18.255Z,65.60
2023-04-21T13:02:44.882Z,65.50
2023-04-21T13:05:11.491Z,65.50
2023-04-21T13:07:37.882Z,65.20
2023-04-21T13:10:04.292Z,64.40
2023-04-21T13:12:30.727Z,64.30
2023-04-21T13:14:57.188Z,64.40
2023-04-21T13:17:23.735Z,64.60
2023-04-21T13:19:50.349Z,64.60
2023-04-21T13:22:16.856Z,64.60
2023-04-21T13:24:43.239Z,64.80
2023-04-21T13:27:09.649Z,64.70
2023-04-21T13:29:36.074Z,65.00
2023-04-21T13:32:02.469Z,65.20
2023-04-21T13:34:29.010Z,65.40
2023-04-21T13:36:55.572Z,65.50
2023-04-21T13:39:22.183Z,66.20
2023-04-21T13:41:48.611Z,65.30
2023-04-21T13:44:14.998Z,65.10
2023-04-21T13:46:41.474Z,64.70
2023-04-21T13:49:07.961Z,64.80
2023-04-21T13:51:34.755Z,63.80
2023-04-21T13:54:01.208Z,63.30
2023-04-21T13:56:27.687Z,63.20
2023-04-21T13:58:54.163Z,63.10
2023-04-21T14:01:21.710Z,63.20
2023-04-21T14:03:48.641Z,63.10
2023-04-21T14:06:15.196Z,63.40
2023-04-21T14:08:41.649Z,63.20
2023-04-21T14:11:08.151Z,63.20
2023-04-21T14:13:40.173Z,63.00
2023-04-21T14:16:14.543Z,62.90
2023-04-21T14:18:40.959Z,63.00
2023-04-21T14:21:07.400Z,63.00
2023-04-21T14:23:33.860Z,62.80
2023-04-21T14:26:00.288Z,62.80
2023-04-21T14:28:26.790Z,62.80
2023-04-21T14:30:53.179Z,62.70
2023-04-21T14:33:19.616Z,62.60
2023-04-21T14:35:46.097Z,62.60
2023-04-21T14:38:12.475Z,62.70
2023-04-21T14:40:38.948Z,62.70
2023-04-21T14:43:05.342Z,62.60
2023-04-21T14:45:31.787Z,62.60
2023-04-21T14:47:58.327Z,62.40
2023-04-21T14:50:24.825Z,62.60
2023-04-21T14:52:51.259Z,62.60
2023-04-21T14:55:17.682Z,62.80
2023-04-21T14:57:44.142Z,62.90
2023-04-21T15:00:10.603Z,62.90
2023-04-21T15:02:37.095Z,63.00
2023-04-21T15:05:03.771Z,62.80
2023-04-21T15:07:30.253Z,62.80
2023-04-21T15:09:56.728Z,62.80
2023-04-21T15:12:23.151Z,62.90
2023-04-21T15:14:49.673Z,63.10
2023-04-21T15:17:16.053Z,63.00
2023-04-21T15:19:42.492Z,62.90
2023-04-21T15:22:08.885Z,63.00
2023-04-21T15:24:35.271Z,63.20
2023-04-21T15:27:01.701Z,63.40
2023-04-21T15:29:28.410Z,63.60
2023-04-21T15:31:55.436Z,63.80
2023-04-21T15:34:21.945Z,64.10
2023-04-21T15:36:48.381Z,64.20
2023-04-21T15:39:14.816Z,64.30
2023-04-21T15:41:41.406Z,64.40
2023-04-21T15:44:07.944Z,64.40
2023-04-21T15:46:34.564Z,64.60
2023-04-21T15:49:01.331Z,64.80
2023-04-21T15:51:27.873Z,65.00
2023-04-21T15:53:54.285Z,65.40
2023-04-21T15:56:20.804Z,65.80
2023-04-21T15:58:47.288Z,66.10
2023-04-21T16:01:13.773Z,66.50
2023-04-21T16:03:40.503Z,66.70
2023-04-21T16:06:07.228Z,67.00
2023-04-21T16:08:33.666Z,67.20
2023-04-21T16:11:00.246Z,67.30
2023-04-21T16:13:26.815Z,67.40
2023-04-21T16:15:53.294Z,67.50
2023-04-21T16:18:19.799Z,67.40
2023-04-21T16:20:46.253Z,67.30
2023-04-21T16:23:12.719Z,67.20
2023-04-21T16:25:39.169Z,67.20
2023-04-21T16:28:05.625Z,67.20
2023-04-21T16:30:32.117Z,67.30
2023-04-21T16:32:58.752Z,67.40
2023-04-21T16:35:25.334Z,67.50
2023-04-21T16:37:51.804Z,67.50
2023-04-21T16:40:18.234Z,67.40
2023-04-21T16:42:44.603Z,67.30
2023-04-21T16:45:11.204Z,67.30
2023-04-21T16:47:41.306Z,67.30
2023-04-21T16:50:08.744Z,67.30
2023-04-21T16:52:35.146Z,67.40
2023-04-21T16:55:01.700Z,67.10
2023-04-21T16:57:28.173Z,66.90
2023-04-21T16:59:54.737Z,66.60
2023-04-21T17:02:21.239Z,65.90
2023-04-21T17:04:47.736Z,65.50
2023-04-21T17:07:14.184Z,65.00
2023-04-21T17:09:40.673Z,64.60
2023-04-21T17:12:07.155Z,64.40
2023-04-21T17:14:33.620Z,63.90
2023-04-21T17:17:00.019Z,63.40
2023-04-21T17:19:26.421Z,63.20
2023-04-21T17:21:52.820Z,63.20
2023-04-21T17:24:19.233Z,63.30
2023-04-21T17:26:45.683Z,63.50
2023-04-21T17:29:12.190Z,63.40
2023-04-21T17:31:38.683Z,63.40
2023-04-21T17:34:05.077Z,63.30
2023-04-21T17:36:31.509Z,63.40
2023-04-21T17:38:57.953Z,63.40
2023-04-21T17:41:24.382Z,63.60
2023-04-21T17:43:50.826Z,63.80
2023-04-21T17:46:17.343Z,63.80
2023-04-21T17:48:43.902Z,63.70
2023-04-21T17:51:10.566Z,64.20
2023-04-21T17:53:37.041Z,63.50
2023-04-21T17:56:03.789Z,63.40
2023-04-21T17:58:30.199Z,63.40
2023-04-21T18:00:56.569Z,63.40
2023-04-21T18:03:23.248Z,63.40
2023-04-21T18:05:49.949Z,63.40
2023-04-21T18:08:16.356Z,63.50
2023-04-21T18:10:42.713Z,63.60
2023-04-21T18:13:09.148Z,63.60
2023-04-21T18:15:35.607Z,63.80
2023-04-21T18:18:02.045Z,64.00
2023-04-21T18:20:28.523Z,64.20
2023-04-21T18:22:54.951Z,64.40
2023-04-21T18:25:34.357Z,64.50
2023-04-21T18:28:07.576Z,64.60
2023-04-21T18:30:34.010Z,64.60
2023-04-21T18:33:00.465Z,64.80
2023-04-21T18:35:26.889Z,65.00
2023-04-21T18:37:53.317Z,65.20
2023-04-21T18:40:19.745Z,65.40
2023-04-21T18:42:46.154Z,65.60
2023-04-21T18:45:12.549Z,65.70
2023-04-21T18:47:39.035Z,65.80
2023-04-21T18:50:05.639Z,65.90
2023-04-21T18:52:32.014Z,65.80
2023-04-21T18:54:58.548Z,65.80
2023-04-21T18:57:24.971Z,65.80
2023-04-21T18:59:51.441Z,65.90
2023-04-21T19:02:17.953Z,66.00
2023-04-21T19:04:44.522Z,66.20
2023-04-21T19:07:10.910Z,66.50
2023-04-21T19:09:37.279Z,66.80
2023-04-21T19:12:03.900Z,66.90
2023-04-21T19:14:39.566Z,67.00
2023-04-21T19:17:12.285Z,67.00
2023-04-21T19:19:38.661Z,67.00
2023-04-21T19:22:05.085Z,67.20
2023-04-21T19:24:31.522Z,67.40
2023-04-21T19:26:57.948Z,67.50
2023-04-21T19:29:24.406Z,67.60
2023-04-21T19:31:50.878Z,67.80
2023-04-21T19:34:17.311Z,68.20
2023-04-21T19:36:43.774Z,68.80
2023-04-21T19:39:10.546Z,69.00
2023-04-21T19:41:37.000Z,69.10
2023-04-21T19:44:03.483Z,69.00
2023-04-21T19:46:29.973Z,68.90
2023-04-21T19:48:56.430Z,68.90
2023-04-21T19:51:22.857Z,68.80
2023-04-21T19:53:56.305Z,68.70
2023-04-21T19:56:29.888Z,68.70
2023-04-21T19:58:57.305Z,68.70
2023-04-21T20:01:25.073Z,68.70
2023-04-21T20:03:51.661Z,68.80
2023-04-21T20:06:18.213Z,68.90
2023-04-21T20:08:44.677Z,68.90
2023-04-21T20:11:11.136Z,68.90
2023-04-21T20:13:37.511Z,68.90
2023-04-21T20:16:03.971Z,69.20
2023-04-21T20:18:30.406Z,69.50
2023-04-21T20:20:56.827Z,69.70
2023-04-21T20:23:23.324Z,69.90
2023-04-21T20:25:49.756Z,70.00
2023-04-21T20:28:16.185Z,70.20
2023-04-21T20:30:42.577Z,70.20
2023-04-21T20:33:09.052Z,70.20
2023-04-21T20:35:35.568Z,70.20
2023-04-21T20:38:02.004Z,70.30
2023-04-21T20:40:28.412Z,70.40
2023-04-21T20:42:54.879Z,70.60
2023-04-21T20:45:21.278Z,70.60
2023-04-21T20:47:47.688Z,70.70
2023-04-21T20:50:14.191Z,70.90
2023-04-21T20:52:40.722Z,71.40
2023-04-21T20:55:07.116Z,71.60
2023-04-21T20:57:33.573Z,71.90
2023-04-21T20:59:59.978Z,71.90
2023-04-21T21:02:26.517Z,72.00
2023-04-21T21:04:53.039Z,71.80
2023-04-21T21:07:19.472Z,71.60
2023-04-21T21:09:45.840Z,71.60
2023-04-21T21:12:12.210Z,71.50
2023-04-21T21:14:38.618Z,71.70
2023-04-21T21:17:05.160Z,71.90
2023-04-21T21:19:31.672Z,72.30
2023-04-21T21:21:58.073Z,72.50
2023-04-21T21:24:24.464Z,72.80
2023-04-21T21:26:50.878Z,73.10
2023-04-21T21:29:17.342Z,73.20
2023-04-21T21:31:43.760Z,73.10
2023-04-21T21:34:10.387Z,73.00
2023-04-21T21:36:37.044Z,72.90
2023-04-21T21:39:03.851Z,72.70
2023-04-21T21:41:30.302Z,72.80
2023-04-21T21:43:56.747Z,72.80
2023-04-21T21:46:23.244Z,72.80
2023-04-21T21:48:49.775Z,73.00
2023-04-21T21:51:16.288Z,73.60
2023-04-21T21:53:42.681Z,73.90
2023-04-21T21:56:09.142Z,74.50
2023-04-21T21:58:35.540Z,74.70
2023-04-21T22:01:02.023Z,74.70
2023-04-21T22:03:28.658Z,74.70
2023-04-21T22:05:55.205Z,74.70
2023-04-21T22:08:21.591Z,74.70
2023-04-21T22:10:47.990Z,74.70
2023-04-21T22:13:14.376Z,74.70
2023-04-21T22:15:40.881Z,75.00
2023-04-21T22:18:07.465Z,75.50
2023-04-21T22:20:33.920Z,75.80
2023-04-21T22:23:00.384Z,76.00
2023-04-21T22:25:26.828Z,76.30
2023-04-21T22:27:53.257Z,76.90
2023-04-21T22:30:19.672Z,77.30
2023-04-21T22:32:46.082Z,77.50
2023-04-21T22:35:12.607Z,77.50
2023-04-21T22:37:39.193Z,77.50
2023-04-21T22:40:05.766Z,77.50
2023-04-21T22:42:32.168Z,77.60
2023-04-21T22:44:58.596Z,77.50
2023-04-21T22:47:25.037Z,77.50
2023-04-21T22:49:51.443Z,77.40
2023-04-21T22:52:17.898Z,77.40
2023-04-21T22:54:44.332Z,77.50
2023-04-21T22:57:10.748Z,77.60
2023-04-21T22:59:37.302Z,77.70
2023-04-21T23:02:03.920Z,77.70
2023-04-21T23:04:30.380Z,77.80
2023-04-21T23:06:56.817Z,78.00
2023-04-21T23:09:23.213Z,78.70
2023-04-21T23:11:49.663Z,78.20
2023-04-21T23:14:16.064Z,78.30
2023-04-21T23:16:42.534Z,78.50
2023-04-21T23:19:08.923Z,78.60
2023-04-21T23:21:35.296Z,78.70
2023-04-21T23:24:01.723Z,78.80
2023-04-21T23:26:28.099Z,79.00
2023-04-21T23:28:54.484Z,79.20
2023-04-21T23:31:20.906Z,79.30
2023-04-21T23:33:47.338Z,79.40
2023-04-21T23:36:13.773Z,79.50
2023-04-21T23:38:40.161Z,79.40
2023-04-21T23:41:06.593Z,79.40
2023-04-21T23:43:33.216Z,79.40
2023-04-21T23:45:59.663Z,79.60
2023-04-21T23:48:26.109Z,79.80
2023-04-21T23:50:52.582Z,79.70
2023-04-21T23:53:19.054Z,79.80
2023-04-21T23:55:45.503Z,79.80
2023-04-21T23:58:11.972Z,79.80
